White Fox, Canada
Current Conditions -  °F | °C
As of 1:00 AM on Tuesday 21 Oct 2014 (Local Time) from CYBU Reporting Station
Few Clouds Few Clouds  
Wind Chill: 42°   Ceiling: Unl
Heat Index: 46°   Visibility: 9mi
Dew Point: 41°   Wind: 9mph
Humidity: 81%   Direction: 160°SSE
Pressure: 29.64"   Gusts: NA
Location:  53.45°N, 104.08°W
Report Text: CYBU 210700Z AUTO 16008KT 9SM FEW240 08/05 A2964 RMK SLP050
Loading
Personal Weather Stations






























Interactive Weather Map
Tropical Storm Tracking
New forecast layout! Learn more

10-Day Weather Forecast

Advertisements
Track Severe Weather on mobile